AFL160 URSS-UUEE
Flight info
| Callsign | AFL160 |
|---|---|
| Flight time | 2h 31m |
| Altitude | 35000 |
| Route | IRGID1S IRGID A944 BEMES R227 KZ DCT MOMER/K0854F360 DCT GOLMA N50 OLOPI OLOPI3F |
| Aircraft | A320/M-SDE3FGHIRWY/LB1 |
Departure
| Time | 2026-05-05 12:14 |
|---|---|
| Airport | Sochi International Airport (URSS) |
Arrival
| Time | 2026-05-05 14:46 |
|---|---|
| Airport | Sheremetyevo International Airport (UUEE) |
| Time | Latitude | Longitude | Altitude | Speed | Heading |
|---|---|---|---|---|---|
| 2026-05-05 11:35 | 43.44797 | 39.94309 | 75 ft | 0 kts | 334° |
| 2026-05-05 12:04 | 43.44796 | 39.94309 | 74 ft | 1 kts | 334° |
| 2026-05-05 12:04 | 43.44774 | 39.94322 | 70 ft | 4 kts | 342° |
| 2026-05-05 12:04 | 43.44748 | 39.94331 | 67 ft | 4 kts | 351° |
| 2026-05-05 12:04 | 43.44721 | 39.94335 | 74 ft | 4 kts | 0° |
| 2026-05-05 12:05 | 43.44694 | 39.94333 | 68 ft | 4 kts | 12° |
| 2026-05-05 12:05 | 43.44669 | 39.94321 | 69 ft | 4 kts | 38° |
| 2026-05-05 12:05 | 43.44659 | 39.94308 | 67 ft | 0 kts | 65° |
| 2026-05-05 12:08 | 43.44669 | 39.94335 | 68 ft | 7 kts | 62° |
| 2026-05-05 12:08 | 43.44687 | 39.94388 | 68 ft | 5 kts | 66° |
| 2026-05-05 12:08 | 43.44702 | 39.94433 | 74 ft | 7 kts | 65° |
| 2026-05-05 12:09 | 43.44731 | 39.94519 | 69 ft | 11 kts | 64° |
| 2026-05-05 12:09 | 43.44758 | 39.94595 | 67 ft | 7 kts | 65° |
| 2026-05-05 12:09 | 43.44783 | 39.94668 | 68 ft | 12 kts | 64° |
| 2026-05-05 12:09 | 43.44826 | 39.94799 | 71 ft | 18 kts | 65° |
| 2026-05-05 12:10 | 43.44875 | 39.94942 | 76 ft | 14 kts | 64° |
| 2026-05-05 12:10 | 43.44911 | 39.95042 | 81 ft | 10 kts | 63° |
| 2026-05-05 12:10 | 43.44939 | 39.95120 | 84 ft | 10 kts | 62° |
| 2026-05-05 12:10 | 43.44975 | 39.95221 | 87 ft | 12 kts | 65° |
| 2026-05-05 12:11 | 43.45003 | 39.95303 | 88 ft | 7 kts | 65° |
| 2026-05-05 12:11 | 43.45029 | 39.95379 | 92 ft | 10 kts | 65° |
| 2026-05-05 12:11 | 43.45052 | 39.95448 | 93 ft | 6 kts | 66° |
| 2026-05-05 12:11 | 43.45051 | 39.95508 | 92 ft | 3 kts | 120° |
| 2026-05-05 12:12 | 43.45047 | 39.95513 | 92 ft | 0 kts | 129° |
| 2026-05-05 12:12 | 43.45010 | 39.95543 | 90 ft | 9 kts | 155° |
| 2026-05-05 12:12 | 43.44957 | 39.95526 | 89 ft | 8 kts | 228° |
| 2026-05-05 12:13 | 43.44935 | 39.95471 | 89 ft | 5 kts | 244° |
| 2026-05-05 12:13 | 43.44932 | 39.95465 | 89 ft | 0 kts | 244° |
| 2026-05-05 12:13 | 43.44925 | 39.95443 | 92 ft | 12 kts | 245° |
| 2026-05-05 12:13 | 43.44777 | 39.95008 | 70 ft | 86 kts | 245° |
| 2026-05-05 12:14 | 43.44440 | 39.94021 | 67 ft | 141 kts | 244° |
| 2026-05-05 12:14 | 43.43971 | 39.92626 | 337 ft | 166 kts | 245° |
| 2026-05-05 12:14 | 43.43495 | 39.91186 | 1038 ft | 165 kts | 248° |
| 2026-05-05 12:14 | 43.43162 | 39.89691 | 1768 ft | 163 kts | 262° |
| 2026-05-05 12:15 | 43.43086 | 39.88074 | 2117 ft | 180 kts | 272° |
| 2026-05-05 12:15 | 43.43215 | 39.86292 | 2396 ft | 200 kts | 283° |
| 2026-05-05 12:15 | 43.43696 | 39.84369 | 2688 ft | 222 kts | 296° |
| 2026-05-05 12:15 | 43.44560 | 39.82463 | 2973 ft | 247 kts | 309° |
| 2026-05-05 12:16 | 43.45324 | 39.81252 | 3341 ft | 256 kts | 311° |
| 2026-05-05 12:16 | 43.46822 | 39.78700 | 4452 ft | 261 kts | 308° |
| 2026-05-05 12:16 | 43.47569 | 39.77357 | 5015 ft | 263 kts | 308° |
| 2026-05-05 12:16 | 43.49039 | 39.74676 | 6096 ft | 267 kts | 308° |
| 2026-05-05 12:17 | 43.50168 | 39.72623 | 6861 ft | 271 kts | 307° |
| 2026-05-05 12:17 | 43.51317 | 39.70543 | 7583 ft | 275 kts | 307° |
| 2026-05-05 12:17 | 43.52108 | 39.69122 | 8090 ft | 278 kts | 307° |
| 2026-05-05 12:17 | 43.53691 | 39.66291 | 9064 ft | 284 kts | 307° |
| 2026-05-05 12:18 | 43.54512 | 39.64827 | 9560 ft | 287 kts | 307° |
| 2026-05-05 12:18 | 43.55723 | 39.62664 | 10238 ft | 291 kts | 307° |
| 2026-05-05 12:18 | 43.57009 | 39.60362 | 10587 ft | 310 kts | 307° |
| 2026-05-05 12:18 | 43.58358 | 39.57957 | 10741 ft | 333 kts | 309° |
| 2026-05-05 12:19 | 43.60108 | 39.55718 | 10871 ft | 355 kts | 326° |
| 2026-05-05 12:19 | 43.62414 | 39.54286 | 11031 ft | 374 kts | 346° |
| 2026-05-05 12:19 | 43.65028 | 39.54000 | 11472 ft | 382 kts | 5° |
| 2026-05-05 12:19 | 43.67623 | 39.54812 | 12062 ft | 385 kts | 23° |
| 2026-05-05 12:20 | 43.70080 | 39.56305 | 12671 ft | 388 kts | 21° |
| 2026-05-05 12:20 | 43.72716 | 39.57213 | 13289 ft | 393 kts | 11° |
| 2026-05-05 12:20 | 43.75442 | 39.57724 | 13896 ft | 397 kts | 6° |
| 2026-05-05 12:20 | 43.78208 | 39.58056 | 14439 ft | 401 kts | 5° |
| 2026-05-05 12:21 | 43.80996 | 39.58370 | 14980 ft | 404 kts | 7° |
| 2026-05-05 12:21 | 43.83725 | 39.59292 | 15522 ft | 405 kts | 23° |
| 2026-05-05 12:21 | 43.86289 | 39.60937 | 16061 ft | 408 kts | 27° |
| 2026-05-05 12:21 | 43.88848 | 39.62653 | 16606 ft | 410 kts | 27° |
| 2026-05-05 12:22 | 43.91418 | 39.64405 | 17151 ft | 413 kts | 27° |
| 2026-05-05 12:22 | 43.94001 | 39.66176 | 17681 ft | 416 kts | 28° |
| 2026-05-05 12:22 | 43.96604 | 39.67964 | 18169 ft | 419 kts | 28° |
| 2026-05-05 12:22 | 43.99229 | 39.69760 | 18622 ft | 422 kts | 27° |
| 2026-05-05 12:23 | 44.01868 | 39.71562 | 19055 ft | 424 kts | 28° |
| 2026-05-05 12:23 | 44.04523 | 39.73375 | 19468 ft | 426 kts | 28° |
| 2026-05-05 12:23 | 44.07191 | 39.75199 | 19878 ft | 428 kts | 28° |
| 2026-05-05 12:23 | 44.09870 | 39.77033 | 20293 ft | 430 kts | 28° |
| 2026-05-05 12:24 | 44.12563 | 39.78877 | 20688 ft | 433 kts | 28° |
| 2026-05-05 12:24 | 44.15275 | 39.80735 | 21098 ft | 435 kts | 28° |
| 2026-05-05 12:24 | 44.17992 | 39.82601 | 21491 ft | 437 kts | 28° |
| 2026-05-05 12:24 | 44.20725 | 39.84481 | 21870 ft | 438 kts | 28° |
| 2026-05-05 12:25 | 44.23455 | 39.86363 | 22225 ft | 440 kts | 28° |
| 2026-05-05 12:25 | 44.26212 | 39.88263 | 22600 ft | 442 kts | 28° |
| 2026-05-05 12:25 | 44.28973 | 39.90165 | 22969 ft | 443 kts | 28° |
| 2026-05-05 12:25 | 44.31740 | 39.92072 | 23349 ft | 444 kts | 28° |
| 2026-05-05 12:26 | 44.34516 | 39.93989 | 23670 ft | 446 kts | 29° |
| 2026-05-05 12:26 | 44.37303 | 39.95915 | 23977 ft | 447 kts | 29° |
| 2026-05-05 12:26 | 44.40093 | 39.97844 | 24279 ft | 448 kts | 29° |
| 2026-05-05 12:26 | 44.42881 | 39.99776 | 24565 ft | 448 kts | 30° |
| 2026-05-05 12:27 | 44.45678 | 40.01715 | 24846 ft | 449 kts | 30° |
| 2026-05-05 12:27 | 44.48479 | 40.03662 | 25121 ft | 450 kts | 30° |
| 2026-05-05 12:27 | 44.51286 | 40.05612 | 25379 ft | 451 kts | 30° |
| 2026-05-05 12:27 | 44.54103 | 40.07570 | 25631 ft | 452 kts | 30° |
| 2026-05-05 12:28 | 44.56916 | 40.09532 | 25871 ft | 453 kts | 30° |
| 2026-05-05 12:28 | 44.59739 | 40.11500 | 26095 ft | 454 kts | 30° |
| 2026-05-05 12:28 | 44.62574 | 40.13476 | 26309 ft | 455 kts | 31° |
| 2026-05-05 12:28 | 44.65409 | 40.15458 | 26508 ft | 456 kts | 31° |
| 2026-05-05 12:29 | 44.68246 | 40.17442 | 26782 ft | 455 kts | 31° |
| 2026-05-05 12:29 | 44.71076 | 40.19426 | 27076 ft | 454 kts | 31° |
| 2026-05-05 12:29 | 44.73901 | 40.21409 | 27362 ft | 453 kts | 31° |
| 2026-05-05 12:29 | 44.76716 | 40.23389 | 27651 ft | 452 kts | 31° |
| 2026-05-05 12:30 | 44.79532 | 40.25371 | 27951 ft | 451 kts | 31° |
| 2026-05-05 12:30 | 44.82337 | 40.27344 | 28259 ft | 450 kts | 31° |
| 2026-05-05 12:30 | 44.85134 | 40.29309 | 28564 ft | 449 kts | 31° |
| 2026-05-05 12:30 | 44.87927 | 40.31277 | 28865 ft | 448 kts | 31° |
| 2026-05-05 12:31 | 44.90714 | 40.33246 | 29173 ft | 447 kts | 31° |
| 2026-05-05 12:31 | 44.93488 | 40.35204 | 29480 ft | 446 kts | 31° |
| 2026-05-05 12:31 | 44.96260 | 40.37162 | 29778 ft | 445 kts | 31° |
| 2026-05-05 12:31 | 44.99030 | 40.39122 | 30081 ft | 444 kts | 31° |
| 2026-05-05 12:32 | 45.01786 | 40.41082 | 30337 ft | 444 kts | 31° |
| 2026-05-05 12:32 | 45.04538 | 40.43043 | 30584 ft | 443 kts | 31° |
| 2026-05-05 12:32 | 45.07293 | 40.45007 | 30810 ft | 443 kts | 31° |
| 2026-05-05 12:32 | 45.10049 | 40.46972 | 31048 ft | 443 kts | 31° |
| 2026-05-05 12:33 | 45.12803 | 40.48939 | 31281 ft | 443 kts | 31° |
| 2026-05-05 12:33 | 45.15551 | 40.50906 | 31514 ft | 443 kts | 31° |
| 2026-05-05 12:33 | 45.18301 | 40.52868 | 31742 ft | 443 kts | 30° |
| 2026-05-05 12:33 | 45.21053 | 40.54825 | 31970 ft | 443 kts | 30° |
| 2026-05-05 12:34 | 45.23809 | 40.56785 | 32208 ft | 443 kts | 30° |
| 2026-05-05 12:34 | 45.26559 | 40.58747 | 32447 ft | 442 kts | 30° |
| 2026-05-05 12:34 | 45.29302 | 40.60714 | 32669 ft | 442 kts | 30° |
| 2026-05-05 12:34 | 45.32044 | 40.62687 | 32898 ft | 442 kts | 30° |
| 2026-05-05 12:35 | 45.34794 | 40.64666 | 33137 ft | 442 kts | 30° |
| 2026-05-05 12:35 | 45.37535 | 40.66638 | 33359 ft | 442 kts | 30° |
| 2026-05-05 12:35 | 45.40269 | 40.68608 | 33589 ft | 442 kts | 30° |
| 2026-05-05 12:35 | 45.43019 | 40.70591 | 33818 ft | 442 kts | 30° |
| 2026-05-05 12:36 | 45.45757 | 40.72568 | 34050 ft | 441 kts | 30° |
| 2026-05-05 12:36 | 45.48485 | 40.74539 | 34239 ft | 441 kts | 30° |
| 2026-05-05 12:36 | 45.51232 | 40.76524 | 34398 ft | 442 kts | 30° |
| 2026-05-05 12:36 | 45.53982 | 40.78512 | 34569 ft | 442 kts | 30° |
| 2026-05-05 12:37 | 45.56726 | 40.80499 | 34728 ft | 443 kts | 30° |
| 2026-05-05 12:37 | 45.59472 | 40.82489 | 34886 ft | 444 kts | 30° |
| 2026-05-05 12:37 | 45.62227 | 40.84488 | 35034 ft | 444 kts | 30° |
| 2026-05-05 12:37 | 45.64984 | 40.86495 | 35178 ft | 445 kts | 30° |
| 2026-05-05 12:38 | 45.67743 | 40.88508 | 35320 ft | 445 kts | 30° |
| 2026-05-05 12:38 | 45.70502 | 40.90523 | 35456 ft | 446 kts | 30° |
| 2026-05-05 12:38 | 45.73234 | 40.92517 | 35596 ft | 447 kts | 30° |
| 2026-05-05 12:38 | 45.76001 | 40.94537 | 35734 ft | 447 kts | 30° |
| 2026-05-05 12:39 | 45.78777 | 40.96566 | 35881 ft | 447 kts | 30° |
| 2026-05-05 12:39 | 45.81548 | 40.98597 | 35995 ft | 449 kts | 30° |
| 2026-05-05 12:39 | 45.87140 | 41.02701 | 36011 ft | 453 kts | 29° |
| 2026-05-05 12:40 | 45.92756 | 41.06826 | 36012 ft | 454 kts | 30° |
| 2026-05-05 12:40 | 45.98377 | 41.10968 | 36017 ft | 454 kts | 30° |
| 2026-05-05 12:41 | 46.04000 | 41.15114 | 36015 ft | 454 kts | 30° |
| 2026-05-05 12:41 | 46.09627 | 41.19276 | 36020 ft | 455 kts | 30° |
| 2026-05-05 12:42 | 46.15248 | 41.23450 | 36022 ft | 455 kts | 30° |
| 2026-05-05 12:42 | 46.20876 | 41.27632 | 36027 ft | 455 kts | 30° |
| 2026-05-05 12:43 | 46.26507 | 41.31836 | 36018 ft | 458 kts | 30° |
| 2026-05-05 12:43 | 46.32184 | 41.36078 | 36018 ft | 462 kts | 30° |
| 2026-05-05 12:44 | 46.37918 | 41.40364 | 36016 ft | 464 kts | 30° |
| 2026-05-05 12:44 | 46.43633 | 41.44656 | 36015 ft | 464 kts | 30° |
| 2026-05-05 12:45 | 46.49375 | 41.48976 | 36016 ft | 464 kts | 30° |
| 2026-05-05 12:45 | 46.55109 | 41.53302 | 36018 ft | 464 kts | 30° |
| 2026-05-05 12:46 | 46.60839 | 41.57627 | 36017 ft | 464 kts | 30° |
| 2026-05-05 12:46 | 46.66550 | 41.61950 | 36018 ft | 464 kts | 30° |
| 2026-05-05 12:47 | 46.72272 | 41.66304 | 36013 ft | 463 kts | 30° |
| 2026-05-05 12:47 | 46.77990 | 41.70654 | 36016 ft | 463 kts | 30° |
| 2026-05-05 12:48 | 46.83696 | 41.75012 | 36013 ft | 463 kts | 30° |
| 2026-05-05 12:48 | 46.89400 | 41.79378 | 36013 ft | 463 kts | 30° |
| 2026-05-05 12:49 | 46.95096 | 41.83756 | 36013 ft | 463 kts | 30° |
| 2026-05-05 12:49 | 47.00799 | 41.88144 | 36013 ft | 463 kts | 30° |
| 2026-05-05 12:50 | 47.06503 | 41.92533 | 36008 ft | 463 kts | 30° |
| 2026-05-05 12:50 | 47.12162 | 41.96896 | 36009 ft | 463 kts | 30° |
| 2026-05-05 12:51 | 47.17854 | 42.01305 | 36010 ft | 462 kts | 30° |
| 2026-05-05 12:51 | 47.23543 | 42.05724 | 36009 ft | 462 kts | 30° |
| 2026-05-05 12:52 | 47.29227 | 42.10150 | 36013 ft | 462 kts | 30° |
| 2026-05-05 12:52 | 47.34916 | 42.14581 | 36011 ft | 462 kts | 30° |
| 2026-05-05 12:53 | 47.40593 | 42.19023 | 36010 ft | 462 kts | 30° |
| 2026-05-05 12:53 | 47.46267 | 42.23476 | 36008 ft | 462 kts | 30° |
| 2026-05-05 12:54 | 47.54773 | 42.30162 | 36007 ft | 462 kts | 30° |
| 2026-05-05 12:55 | 47.60443 | 42.34634 | 36006 ft | 461 kts | 30° |
| 2026-05-05 12:55 | 47.66106 | 42.39116 | 36002 ft | 461 kts | 30° |
| 2026-05-05 12:56 | 47.71765 | 42.43599 | 36004 ft | 461 kts | 30° |
| 2026-05-05 12:56 | 47.77434 | 42.48096 | 36000 ft | 461 kts | 30° |
| 2026-05-05 12:57 | 47.83098 | 42.52597 | 36001 ft | 461 kts | 30° |
| 2026-05-05 12:57 | 47.88751 | 42.57117 | 35999 ft | 461 kts | 30° |
| 2026-05-05 12:58 | 47.94401 | 42.61648 | 35993 ft | 461 kts | 30° |
| 2026-05-05 12:58 | 48.00050 | 42.66182 | 36000 ft | 461 kts | 30° |
| 2026-05-05 12:59 | 48.05693 | 42.70721 | 35999 ft | 460 kts | 30° |
| 2026-05-05 12:59 | 48.11326 | 42.75276 | 35999 ft | 460 kts | 30° |
| 2026-05-05 13:00 | 48.19780 | 42.82113 | 35993 ft | 460 kts | 30° |
| 2026-05-05 13:01 | 48.31036 | 42.91256 | 35994 ft | 460 kts | 31° |
| 2026-05-05 13:01 | 48.36658 | 42.95846 | 35987 ft | 460 kts | 31° |
| 2026-05-05 13:02 | 48.41336 | 42.99668 | 35993 ft | 460 kts | 31° |
| 2026-05-05 13:02 | 48.46964 | 43.04276 | 35998 ft | 461 kts | 31° |
| 2026-05-05 13:03 | 48.52593 | 43.08900 | 36003 ft | 461 kts | 30° |
| 2026-05-05 13:03 | 48.58216 | 43.13527 | 36003 ft | 461 kts | 31° |
| 2026-05-05 13:04 | 48.63842 | 43.18174 | 36005 ft | 461 kts | 31° |
| 2026-05-05 13:04 | 48.69466 | 43.22838 | 35999 ft | 461 kts | 31° |
| 2026-05-05 13:05 | 48.75092 | 43.27513 | 36000 ft | 461 kts | 31° |
| 2026-05-05 13:05 | 48.80719 | 43.32191 | 36008 ft | 461 kts | 31° |
| 2026-05-05 13:06 | 48.86346 | 43.36883 | 36005 ft | 462 kts | 31° |
| 2026-05-05 13:06 | 48.91971 | 43.41593 | 36010 ft | 462 kts | 31° |
| 2026-05-05 13:07 | 48.97601 | 43.46312 | 36009 ft | 462 kts | 31° |
| 2026-05-05 13:07 | 49.03227 | 43.51046 | 36003 ft | 462 kts | 31° |
| 2026-05-05 13:08 | 49.08854 | 43.55796 | 36003 ft | 462 kts | 31° |
| 2026-05-05 13:08 | 49.14480 | 43.60542 | 36001 ft | 462 kts | 30° |
| 2026-05-05 13:09 | 49.20100 | 43.65301 | 35994 ft | 462 kts | 30° |
| 2026-05-05 13:09 | 49.25717 | 43.70078 | 35996 ft | 462 kts | 30° |
| 2026-05-05 13:10 | 49.31332 | 43.74861 | 35992 ft | 462 kts | 30° |
| 2026-05-05 13:10 | 49.36944 | 43.79651 | 35989 ft | 462 kts | 30° |
| 2026-05-05 13:11 | 49.42518 | 43.84424 | 35987 ft | 462 kts | 30° |
| 2026-05-05 13:11 | 49.48136 | 43.89251 | 35988 ft | 462 kts | 30° |
| 2026-05-05 13:12 | 49.53924 | 43.93522 | 35980 ft | 464 kts | 14° |
| 2026-05-05 13:12 | 49.57123 | 43.94089 | 35978 ft | 465 kts | 358° |
| 2026-05-05 13:12 | 49.60304 | 43.93209 | 35974 ft | 466 kts | 340° |
| 2026-05-05 13:13 | 49.63181 | 43.90949 | 35964 ft | 467 kts | 324° |
| 2026-05-05 13:13 | 49.65754 | 43.87881 | 35964 ft | 468 kts | 322° |
| 2026-05-05 13:13 | 49.70891 | 43.81676 | 35963 ft | 469 kts | 322° |
| 2026-05-05 13:14 | 49.76046 | 43.75481 | 35969 ft | 470 kts | 322° |
| 2026-05-05 13:14 | 49.81212 | 43.69265 | 35972 ft | 470 kts | 322° |
| 2026-05-05 13:15 | 49.86371 | 43.63028 | 35978 ft | 471 kts | 322° |
| 2026-05-05 13:15 | 49.91524 | 43.56767 | 35978 ft | 471 kts | 322° |
| 2026-05-05 13:16 | 49.96678 | 43.50490 | 35982 ft | 471 kts | 322° |
| 2026-05-05 13:16 | 50.01824 | 43.44212 | 35983 ft | 470 kts | 322° |
| 2026-05-05 13:17 | 50.06976 | 43.37925 | 35986 ft | 471 kts | 322° |
| 2026-05-05 13:17 | 50.12124 | 43.31630 | 35989 ft | 471 kts | 322° |
| 2026-05-05 13:18 | 50.17266 | 43.25302 | 35994 ft | 471 kts | 321° |
| 2026-05-05 13:18 | 50.22396 | 43.18957 | 35993 ft | 471 kts | 321° |
| 2026-05-05 13:19 | 50.27534 | 43.12596 | 35994 ft | 471 kts | 321° |
| 2026-05-05 13:19 | 50.32662 | 43.06232 | 35995 ft | 471 kts | 321° |
| 2026-05-05 13:20 | 50.37792 | 42.99854 | 35992 ft | 470 kts | 321° |
| 2026-05-05 13:20 | 50.42910 | 42.93466 | 35993 ft | 470 kts | 321° |
| 2026-05-05 13:21 | 50.48028 | 42.87070 | 35993 ft | 470 kts | 321° |
| 2026-05-05 13:21 | 50.53134 | 42.80665 | 35988 ft | 470 kts | 321° |
| 2026-05-05 13:22 | 50.58238 | 42.74240 | 35989 ft | 470 kts | 321° |
| 2026-05-05 13:22 | 50.63334 | 42.67814 | 35985 ft | 469 kts | 321° |
| 2026-05-05 13:23 | 50.68419 | 42.61375 | 35985 ft | 469 kts | 321° |
| 2026-05-05 13:23 | 50.73512 | 42.54910 | 35988 ft | 469 kts | 321° |
| 2026-05-05 13:24 | 50.78580 | 42.48439 | 35985 ft | 469 kts | 321° |
| 2026-05-05 13:24 | 50.83656 | 42.41954 | 35985 ft | 469 kts | 321° |
| 2026-05-05 13:25 | 50.88693 | 42.35517 | 35984 ft | 468 kts | 321° |
| 2026-05-05 13:25 | 50.93747 | 42.29028 | 35979 ft | 468 kts | 320° |
| 2026-05-05 13:26 | 50.98781 | 42.22529 | 35977 ft | 468 kts | 320° |
| 2026-05-05 13:26 | 51.03845 | 42.15989 | 35975 ft | 468 kts | 320° |
| 2026-05-05 13:27 | 51.08893 | 42.09459 | 35974 ft | 468 kts | 320° |
| 2026-05-05 13:27 | 51.13930 | 42.02920 | 35973 ft | 467 kts | 320° |
| 2026-05-05 13:28 | 51.18964 | 41.96366 | 35975 ft | 467 kts | 320° |
| 2026-05-05 13:28 | 51.23995 | 41.89788 | 35972 ft | 467 kts | 320° |
| 2026-05-05 13:29 | 51.29018 | 41.83198 | 35972 ft | 467 kts | 320° |
| 2026-05-05 13:29 | 51.34040 | 41.76595 | 35968 ft | 467 kts | 320° |
| 2026-05-05 13:30 | 51.39052 | 41.69976 | 35967 ft | 467 kts | 320° |
| 2026-05-05 13:30 | 51.44068 | 41.63348 | 35961 ft | 468 kts | 320° |
| 2026-05-05 13:31 | 51.49087 | 41.56714 | 35960 ft | 467 kts | 320° |
| 2026-05-05 13:31 | 51.54101 | 41.50057 | 35967 ft | 468 kts | 320° |
| 2026-05-05 13:32 | 51.59101 | 41.43372 | 35960 ft | 468 kts | 320° |
| 2026-05-05 13:32 | 51.64095 | 41.36661 | 35958 ft | 468 kts | 320° |
| 2026-05-05 13:33 | 51.69133 | 41.30028 | 35952 ft | 468 kts | 322° |
| 2026-05-05 13:33 | 51.74424 | 41.23926 | 35954 ft | 468 kts | 325° |
| 2026-05-05 13:34 | 51.79823 | 41.18055 | 35950 ft | 468 kts | 325° |
| 2026-05-05 13:34 | 51.85186 | 41.12076 | 35953 ft | 468 kts | 324° |
| 2026-05-05 13:35 | 51.90492 | 41.05980 | 35950 ft | 468 kts | 324° |
| 2026-05-05 13:35 | 51.95779 | 40.99852 | 35956 ft | 468 kts | 323° |
| 2026-05-05 13:36 | 52.01078 | 40.93724 | 35957 ft | 467 kts | 324° |
| 2026-05-05 13:36 | 52.06521 | 40.87948 | 35949 ft | 468 kts | 330° |
| 2026-05-05 13:37 | 52.12196 | 40.82762 | 35950 ft | 467 kts | 330° |
| 2026-05-05 13:37 | 52.17812 | 40.77579 | 35949 ft | 467 kts | 330° |
| 2026-05-05 13:38 | 52.23465 | 40.72375 | 35951 ft | 467 kts | 330° |
| 2026-05-05 13:38 | 52.29115 | 40.67151 | 35948 ft | 466 kts | 329° |
| 2026-05-05 13:39 | 52.34745 | 40.61900 | 35946 ft | 466 kts | 329° |
| 2026-05-05 13:39 | 52.40380 | 40.56653 | 35944 ft | 465 kts | 330° |
| 2026-05-05 13:40 | 52.46005 | 40.51413 | 35942 ft | 465 kts | 329° |
| 2026-05-05 13:40 | 52.51622 | 40.46138 | 35942 ft | 465 kts | 329° |
| 2026-05-05 13:41 | 52.57215 | 40.40907 | 35924 ft | 462 kts | 332° |
| 2026-05-05 13:41 | 52.62605 | 40.35107 | 35919 ft | 463 kts | 329° |
| 2026-05-05 13:42 | 52.68273 | 40.30071 | 35930 ft | 463 kts | 332° |
| 2026-05-05 13:42 | 52.73967 | 40.25205 | 35929 ft | 463 kts | 331° |
| 2026-05-05 13:43 | 52.79612 | 40.20002 | 35932 ft | 462 kts | 329° |
| 2026-05-05 13:43 | 52.85156 | 40.14666 | 35929 ft | 462 kts | 329° |
| 2026-05-05 13:44 | 52.90728 | 40.09309 | 35925 ft | 462 kts | 329° |
| 2026-05-05 13:44 | 52.96303 | 40.04015 | 35920 ft | 461 kts | 329° |
| 2026-05-05 13:45 | 53.01864 | 39.98714 | 35917 ft | 461 kts | 329° |
| 2026-05-05 13:45 | 53.07418 | 39.93372 | 35924 ft | 461 kts | 329° |
| 2026-05-05 13:46 | 53.12967 | 39.88038 | 35916 ft | 460 kts | 329° |
| 2026-05-05 13:46 | 53.18509 | 39.82679 | 35914 ft | 460 kts | 329° |
| 2026-05-05 13:47 | 53.24046 | 39.77331 | 35915 ft | 460 kts | 329° |
| 2026-05-05 13:47 | 53.29544 | 39.71993 | 35911 ft | 460 kts | 329° |
| 2026-05-05 13:48 | 53.35076 | 39.66622 | 35907 ft | 460 kts | 328° |
| 2026-05-05 13:48 | 53.40600 | 39.61234 | 35902 ft | 460 kts | 328° |
| 2026-05-05 13:49 | 53.46223 | 39.56112 | 35901 ft | 460 kts | 332° |
| 2026-05-05 13:49 | 53.51038 | 39.52147 | 35898 ft | 460 kts | 333° |
| 2026-05-05 13:50 | 53.56716 | 39.47510 | 35882 ft | 450 kts | 332° |
| 2026-05-05 13:50 | 53.62305 | 39.42802 | 35879 ft | 448 kts | 332° |
| 2026-05-05 13:51 | 53.67810 | 39.38071 | 35878 ft | 447 kts | 331° |
| 2026-05-05 13:51 | 53.73388 | 39.33260 | 35871 ft | 447 kts | 331° |
| 2026-05-05 13:52 | 53.78930 | 39.28493 | 35873 ft | 447 kts | 331° |
| 2026-05-05 13:52 | 53.84475 | 39.23727 | 35876 ft | 447 kts | 331° |
| 2026-05-05 13:53 | 53.90012 | 39.18941 | 35873 ft | 447 kts | 331° |
| 2026-05-05 13:53 | 53.95542 | 39.14144 | 35888 ft | 446 kts | 331° |
| 2026-05-05 13:54 | 54.01015 | 39.09380 | 35893 ft | 444 kts | 331° |
| 2026-05-05 13:54 | 54.03786 | 39.06966 | 35402 ft | 439 kts | 331° |
| 2026-05-05 13:54 | 54.06473 | 39.04619 | 33885 ft | 446 kts | 331° |
| 2026-05-05 13:55 | 54.09302 | 39.02140 | 32101 ft | 452 kts | 331° |
| 2026-05-05 13:55 | 54.12115 | 38.99674 | 30396 ft | 455 kts | 331° |
| 2026-05-05 13:55 | 54.14902 | 38.97235 | 28755 ft | 456 kts | 330° |
| 2026-05-05 13:55 | 54.17662 | 38.94819 | 28148 ft | 435 kts | 330° |
| 2026-05-05 13:56 | 54.20280 | 38.92527 | 27841 ft | 411 kts | 330° |
| 2026-05-05 13:56 | 54.22827 | 38.90288 | 27385 ft | 402 kts | 330° |
| 2026-05-05 13:56 | 54.25265 | 38.88149 | 27127 ft | 397 kts | 330° |
| 2026-05-05 13:56 | 54.27724 | 38.86033 | 26867 ft | 394 kts | 331° |
| 2026-05-05 13:57 | 54.30173 | 38.83950 | 26612 ft | 393 kts | 331° |
| 2026-05-05 13:57 | 54.32615 | 38.81879 | 26356 ft | 391 kts | 331° |
| 2026-05-05 13:57 | 54.35049 | 38.79813 | 26101 ft | 390 kts | 331° |
| 2026-05-05 13:57 | 54.37472 | 38.77753 | 25882 ft | 388 kts | 331° |
| 2026-05-05 13:58 | 54.39883 | 38.75699 | 25854 ft | 387 kts | 331° |
| 2026-05-05 13:58 | 54.42299 | 38.73630 | 25861 ft | 388 kts | 331° |
| 2026-05-05 13:58 | 54.44711 | 38.71557 | 25855 ft | 388 kts | 331° |
| 2026-05-05 13:58 | 54.47123 | 38.69481 | 25855 ft | 388 kts | 331° |
| 2026-05-05 13:59 | 54.51951 | 38.65322 | 25862 ft | 388 kts | 330° |
| 2026-05-05 13:59 | 54.54358 | 38.63242 | 25854 ft | 388 kts | 330° |
| 2026-05-05 14:00 | 54.59177 | 38.59076 | 25858 ft | 388 kts | 330° |
| 2026-05-05 14:00 | 54.61589 | 38.56986 | 25855 ft | 388 kts | 330° |
| 2026-05-05 14:00 | 54.63999 | 38.54895 | 25854 ft | 387 kts | 330° |
| 2026-05-05 14:00 | 54.66406 | 38.52800 | 25853 ft | 387 kts | 330° |
| 2026-05-05 14:01 | 54.68811 | 38.50702 | 25858 ft | 387 kts | 330° |
| 2026-05-05 14:01 | 54.71213 | 38.48609 | 25858 ft | 387 kts | 330° |
| 2026-05-05 14:01 | 54.73620 | 38.46512 | 25852 ft | 387 kts | 330° |
| 2026-05-05 14:01 | 54.76027 | 38.44415 | 25631 ft | 386 kts | 330° |
| 2026-05-05 14:02 | 54.78426 | 38.42330 | 25462 ft | 385 kts | 330° |
| 2026-05-05 14:02 | 54.80815 | 38.40255 | 25277 ft | 384 kts | 330° |
| 2026-05-05 14:02 | 54.83197 | 38.38176 | 25096 ft | 383 kts | 329° |
| 2026-05-05 14:02 | 54.85415 | 38.35672 | 24917 ft | 379 kts | 319° |
| 2026-05-05 14:03 | 54.87332 | 38.32574 | 24743 ft | 376 kts | 311° |
| 2026-05-05 14:03 | 54.89148 | 38.29324 | 24566 ft | 375 kts | 311° |
| 2026-05-05 14:03 | 54.90972 | 38.26074 | 24388 ft | 374 kts | 312° |
| 2026-05-05 14:03 | 54.92791 | 38.22845 | 24215 ft | 373 kts | 312° |
| 2026-05-05 14:04 | 54.94612 | 38.19616 | 24038 ft | 372 kts | 312° |
| 2026-05-05 14:04 | 54.96398 | 38.16441 | 23866 ft | 372 kts | 311° |
| 2026-05-05 14:04 | 54.98208 | 38.13209 | 23497 ft | 371 kts | 311° |
| 2026-05-05 14:04 | 55.00001 | 38.09993 | 23063 ft | 368 kts | 311° |
| 2026-05-05 14:05 | 55.01779 | 38.06798 | 22697 ft | 366 kts | 311° |
| 2026-05-05 14:05 | 55.03518 | 38.03660 | 22322 ft | 363 kts | 311° |
| 2026-05-05 14:05 | 55.05284 | 38.00459 | 21951 ft | 361 kts | 310° |
| 2026-05-05 14:05 | 55.07019 | 37.97309 | 21585 ft | 359 kts | 311° |
| 2026-05-05 14:06 | 55.08749 | 37.94170 | 21201 ft | 356 kts | 311° |
| 2026-05-05 14:06 | 55.10464 | 37.91063 | 20840 ft | 354 kts | 311° |
| 2026-05-05 14:06 | 55.12167 | 37.87975 | 20564 ft | 353 kts | 310° |
| 2026-05-05 14:06 | 55.13872 | 37.84882 | 20296 ft | 351 kts | 310° |
| 2026-05-05 14:07 | 55.15566 | 37.81807 | 20026 ft | 350 kts | 310° |
| 2026-05-05 14:07 | 55.17325 | 37.78968 | 19841 ft | 351 kts | 319° |
| 2026-05-05 14:07 | 55.19305 | 37.76454 | 19855 ft | 352 kts | 320° |
| 2026-05-05 14:07 | 55.21284 | 37.73943 | 19857 ft | 352 kts | 320° |
| 2026-05-05 14:08 | 55.23266 | 37.71413 | 19859 ft | 351 kts | 319° |
| 2026-05-05 14:08 | 55.24973 | 37.68463 | 19856 ft | 337 kts | 303° |
| 2026-05-05 14:08 | 55.26061 | 37.64967 | 19859 ft | 319 kts | 287° |
| 2026-05-05 14:08 | 55.26537 | 37.61230 | 19857 ft | 313 kts | 272° |
| 2026-05-05 14:09 | 55.26427 | 37.57445 | 19856 ft | 311 kts | 259° |
| 2026-05-05 14:09 | 55.25996 | 37.53730 | 19853 ft | 311 kts | 258° |
| 2026-05-05 14:09 | 55.25561 | 37.50013 | 19850 ft | 311 kts | 258° |
| 2026-05-05 14:09 | 55.25127 | 37.46289 | 19856 ft | 311 kts | 258° |
| 2026-05-05 14:10 | 55.24696 | 37.42580 | 19853 ft | 311 kts | 258° |
| 2026-05-05 14:10 | 55.24302 | 37.38901 | 19847 ft | 311 kts | 264° |
| 2026-05-05 14:10 | 55.24470 | 37.35138 | 19854 ft | 313 kts | 284° |
| 2026-05-05 14:10 | 55.25419 | 37.31689 | 19855 ft | 318 kts | 304° |
| 2026-05-05 14:11 | 55.27047 | 37.29030 | 19745 ft | 327 kts | 324° |
| 2026-05-05 14:11 | 55.29178 | 37.27600 | 19441 ft | 333 kts | 347° |
| 2026-05-05 14:11 | 55.31514 | 37.27726 | 19175 ft | 341 kts | 8° |
| 2026-05-05 14:11 | 55.33837 | 37.28660 | 18901 ft | 342 kts | 9° |
| 2026-05-05 14:12 | 55.36154 | 37.29624 | 18625 ft | 341 kts | 9° |
| 2026-05-05 14:12 | 55.38455 | 37.30590 | 18351 ft | 340 kts | 9° |
| 2026-05-05 14:12 | 55.40764 | 37.31555 | 18064 ft | 339 kts | 9° |
| 2026-05-05 14:12 | 55.43052 | 37.32503 | 17783 ft | 338 kts | 8° |
| 2026-05-05 14:13 | 55.45342 | 37.33447 | 17511 ft | 336 kts | 8° |
| 2026-05-05 14:13 | 55.47618 | 37.34380 | 17244 ft | 335 kts | 8° |
| 2026-05-05 14:13 | 55.49882 | 37.35305 | 16979 ft | 333 kts | 7° |
| 2026-05-05 14:13 | 55.52126 | 37.35756 | 16680 ft | 326 kts | 355° |
| 2026-05-05 14:14 | 55.54390 | 37.35732 | 16302 ft | 324 kts | 354° |
| 2026-05-05 14:14 | 55.56643 | 37.35698 | 15950 ft | 324 kts | 354° |
| 2026-05-05 14:14 | 55.58897 | 37.35667 | 15584 ft | 323 kts | 354° |
| 2026-05-05 14:14 | 55.61144 | 37.35643 | 15225 ft | 323 kts | 354° |
| 2026-05-05 14:15 | 55.63384 | 37.35621 | 14888 ft | 321 kts | 354° |
| 2026-05-05 14:15 | 55.65610 | 37.35599 | 14572 ft | 319 kts | 354° |
| 2026-05-05 14:15 | 55.67835 | 37.35578 | 14223 ft | 318 kts | 354° |
| 2026-05-05 14:15 | 55.70044 | 37.35557 | 13859 ft | 318 kts | 354° |
| 2026-05-05 14:16 | 55.72239 | 37.35536 | 13567 ft | 314 kts | 354° |
| 2026-05-05 14:16 | 55.74435 | 37.35445 | 13191 ft | 313 kts | 352° |
| 2026-05-05 14:16 | 55.76601 | 37.35243 | 12807 ft | 311 kts | 351° |
| 2026-05-05 14:16 | 55.78744 | 37.34992 | 12484 ft | 307 kts | 350° |
| 2026-05-05 14:17 | 55.80789 | 37.34742 | 12158 ft | 305 kts | 350° |
| 2026-05-05 14:17 | 55.82894 | 37.34490 | 11939 ft | 301 kts | 350° |
| 2026-05-05 14:17 | 55.84987 | 37.34245 | 11726 ft | 300 kts | 350° |
| 2026-05-05 14:17 | 55.87068 | 37.34000 | 11452 ft | 299 kts | 350° |
| 2026-05-05 14:18 | 55.89138 | 37.33763 | 11175 ft | 298 kts | 350° |
| 2026-05-05 14:18 | 55.91201 | 37.33533 | 10899 ft | 297 kts | 350° |
| 2026-05-05 14:18 | 55.93264 | 37.33308 | 10613 ft | 295 kts | 350° |
| 2026-05-05 14:18 | 55.95312 | 37.33084 | 10350 ft | 294 kts | 350° |
| 2026-05-05 14:19 | 55.97315 | 37.32592 | 10080 ft | 286 kts | 338° |
| 2026-05-05 14:19 | 55.99141 | 37.31331 | 9892 ft | 277 kts | 325° |
| 2026-05-05 14:19 | 56.00769 | 37.29538 | 9775 ft | 275 kts | 321° |
| 2026-05-05 14:19 | 56.02385 | 37.27707 | 9643 ft | 275 kts | 321° |
| 2026-05-05 14:20 | 56.03997 | 37.25885 | 9505 ft | 274 kts | 321° |
| 2026-05-05 14:20 | 56.05592 | 37.24082 | 9380 ft | 273 kts | 321° |
| 2026-05-05 14:20 | 56.07205 | 37.22257 | 9247 ft | 273 kts | 321° |
| 2026-05-05 14:20 | 56.08807 | 37.20445 | 9118 ft | 272 kts | 321° |
| 2026-05-05 14:21 | 56.10366 | 37.18539 | 8987 ft | 268 kts | 314° |
| 2026-05-05 14:21 | 56.11696 | 37.16236 | 8830 ft | 265 kts | 309° |
| 2026-05-05 14:21 | 56.12979 | 37.13928 | 8677 ft | 264 kts | 309° |
| 2026-05-05 14:21 | 56.14276 | 37.11595 | 8509 ft | 264 kts | 309° |
| 2026-05-05 14:22 | 56.15570 | 37.09268 | 8368 ft | 263 kts | 309° |
| 2026-05-05 14:22 | 56.16864 | 37.06940 | 8210 ft | 263 kts | 309° |
| 2026-05-05 14:22 | 56.18154 | 37.04625 | 8078 ft | 262 kts | 310° |
| 2026-05-05 14:22 | 56.19585 | 37.02567 | 7996 ft | 265 kts | 319° |
| 2026-05-05 14:23 | 56.21091 | 37.00639 | 8007 ft | 265 kts | 318° |
| 2026-05-05 14:23 | 56.22592 | 36.98703 | 8013 ft | 265 kts | 318° |
| 2026-05-05 14:23 | 56.24071 | 36.96788 | 8009 ft | 265 kts | 318° |
| 2026-05-05 14:23 | 56.25565 | 36.94850 | 8011 ft | 265 kts | 318° |
| 2026-05-05 14:24 | 56.27063 | 36.92902 | 8006 ft | 266 kts | 318° |
| 2026-05-05 14:24 | 56.28565 | 36.90954 | 8006 ft | 265 kts | 318° |
| 2026-05-05 14:24 | 56.30096 | 36.89230 | 7996 ft | 257 kts | 332° |
| 2026-05-05 14:24 | 56.31869 | 36.88731 | 7999 ft | 266 kts | 359° |
| 2026-05-05 14:25 | 56.33647 | 36.89854 | 8003 ft | 280 kts | 31° |
| 2026-05-05 14:25 | 56.35120 | 36.92213 | 8006 ft | 285 kts | 40° |
| 2026-05-05 14:25 | 56.36544 | 36.94708 | 8002 ft | 285 kts | 40° |
| 2026-05-05 14:25 | 56.37945 | 36.97190 | 8003 ft | 285 kts | 40° |
| 2026-05-05 14:26 | 56.39363 | 36.99704 | 8003 ft | 284 kts | 40° |
| 2026-05-05 14:26 | 56.40756 | 37.02236 | 7998 ft | 282 kts | 46° |
| 2026-05-05 14:26 | 56.41826 | 37.05153 | 7963 ft | 279 kts | 60° |
| 2026-05-05 14:26 | 56.42719 | 37.08248 | 7900 ft | 277 kts | 60° |
| 2026-05-05 14:27 | 56.43619 | 37.11329 | 7843 ft | 277 kts | 60° |
| 2026-05-05 14:27 | 56.44521 | 37.14404 | 7778 ft | 276 kts | 60° |
| 2026-05-05 14:27 | 56.45411 | 37.17424 | 7717 ft | 275 kts | 59° |
| 2026-05-05 14:27 | 56.46149 | 37.20612 | 7628 ft | 276 kts | 75° |
| 2026-05-05 14:28 | 56.46401 | 37.24037 | 7485 ft | 275 kts | 92° |
| 2026-05-05 14:28 | 56.46313 | 37.27488 | 7379 ft | 275 kts | 94° |
| 2026-05-05 14:28 | 56.46214 | 37.30942 | 7251 ft | 274 kts | 94° |
| 2026-05-05 14:28 | 56.46118 | 37.34388 | 7126 ft | 274 kts | 94° |
| 2026-05-05 14:29 | 56.46025 | 37.37825 | 7004 ft | 273 kts | 94° |
| 2026-05-05 14:29 | 56.45758 | 37.41205 | 6882 ft | 270 kts | 109° |
| 2026-05-05 14:29 | 56.45025 | 37.44288 | 6753 ft | 266 kts | 126° |
| 2026-05-05 14:29 | 56.43996 | 37.47015 | 6639 ft | 265 kts | 129° |
| 2026-05-05 14:30 | 56.42946 | 37.49752 | 6559 ft | 265 kts | 129° |
| 2026-05-05 14:30 | 56.41827 | 37.52386 | 6481 ft | 260 kts | 143° |
| 2026-05-05 14:30 | 56.40330 | 37.54023 | 6410 ft | 247 kts | 170° |
| 2026-05-05 14:30 | 56.38683 | 37.54364 | 6339 ft | 234 kts | 194° |
| 2026-05-05 14:31 | 56.37174 | 37.53547 | 6265 ft | 223 kts | 215° |
| 2026-05-05 14:31 | 56.35991 | 37.51832 | 6201 ft | 216 kts | 234° |
| 2026-05-05 14:31 | 56.35025 | 37.49762 | 6203 ft | 217 kts | 233° |
| 2026-05-05 14:31 | 56.34042 | 37.47684 | 6178 ft | 217 kts | 233° |
| 2026-05-05 14:32 | 56.33055 | 37.45609 | 6153 ft | 218 kts | 233° |
| 2026-05-05 14:32 | 56.32070 | 37.43540 | 6126 ft | 218 kts | 233° |
| 2026-05-05 14:32 | 56.31082 | 37.41472 | 6093 ft | 217 kts | 233° |
| 2026-05-05 14:32 | 56.30098 | 37.39416 | 6051 ft | 216 kts | 233° |
| 2026-05-05 14:33 | 56.29118 | 37.37359 | 5941 ft | 216 kts | 233° |
| 2026-05-05 14:33 | 56.28153 | 37.35335 | 5820 ft | 216 kts | 233° |
| 2026-05-05 14:33 | 56.27176 | 37.33292 | 5691 ft | 215 kts | 233° |
| 2026-05-05 14:33 | 56.26144 | 37.31317 | 5560 ft | 219 kts | 221° |
| 2026-05-05 14:34 | 56.24750 | 37.30134 | 5435 ft | 228 kts | 197° |
| 2026-05-05 14:34 | 56.23134 | 37.30203 | 5306 ft | 239 kts | 172° |
| 2026-05-05 14:34 | 56.22064 | 37.30735 | 5223 ft | 241 kts | 171° |
| 2026-05-05 14:34 | 56.20456 | 37.31551 | 5102 ft | 240 kts | 171° |
| 2026-05-05 14:35 | 56.18332 | 37.32726 | 4929 ft | 244 kts | 159° |
| 2026-05-05 14:35 | 56.17405 | 37.33971 | 4845 ft | 252 kts | 135° |
| 2026-05-05 14:35 | 56.16674 | 37.36857 | 4724 ft | 261 kts | 96° |
| 2026-05-05 14:35 | 56.16909 | 37.40071 | 4600 ft | 263 kts | 74° |
| 2026-05-05 14:36 | 56.17386 | 37.43203 | 4471 ft | 264 kts | 74° |
| 2026-05-05 14:36 | 56.17876 | 37.46391 | 4334 ft | 263 kts | 74° |
| 2026-05-05 14:36 | 56.18360 | 37.49553 | 4217 ft | 262 kts | 74° |
| 2026-05-05 14:36 | 56.18839 | 37.52700 | 4085 ft | 261 kts | 74° |
| 2026-05-05 14:37 | 56.19128 | 37.55893 | 3948 ft | 258 kts | 92° |
| 2026-05-05 14:37 | 56.18840 | 37.59043 | 3827 ft | 255 kts | 112° |
| 2026-05-05 14:37 | 56.18020 | 37.61808 | 3698 ft | 248 kts | 132° |
| 2026-05-05 14:37 | 56.16853 | 37.64034 | 3556 ft | 243 kts | 139° |
| 2026-05-05 14:38 | 56.15666 | 37.66194 | 3451 ft | 243 kts | 139° |
| 2026-05-05 14:38 | 56.14478 | 37.68370 | 3332 ft | 243 kts | 139° |
| 2026-05-05 14:38 | 56.13294 | 37.70543 | 3203 ft | 244 kts | 139° |
| 2026-05-05 14:38 | 56.12121 | 37.72697 | 3084 ft | 236 kts | 138° |
| 2026-05-05 14:39 | 56.10998 | 37.74762 | 2954 ft | 226 kts | 139° |
| 2026-05-05 14:39 | 56.09790 | 37.76420 | 2811 ft | 213 kts | 161° |
| 2026-05-05 14:39 | 56.08424 | 37.76973 | 2697 ft | 198 kts | 186° |
| 2026-05-05 14:39 | 56.07121 | 37.76512 | 2604 ft | 185 kts | 204° |
| 2026-05-05 14:40 | 56.05936 | 37.75775 | 2496 ft | 176 kts | 203° |
| 2026-05-05 14:40 | 56.04803 | 37.75090 | 2360 ft | 168 kts | 204° |
| 2026-05-05 14:40 | 56.03726 | 37.74446 | 2229 ft | 159 kts | 203° |
| 2026-05-05 14:40 | 56.02754 | 37.73688 | 2114 ft | 146 kts | 219° |
| 2026-05-05 14:41 | 56.02081 | 37.72423 | 2034 ft | 139 kts | 241° |
| 2026-05-05 14:41 | 56.01739 | 37.70834 | 2016 ft | 137 kts | 257° |
| 2026-05-05 14:41 | 56.01500 | 37.69166 | 1998 ft | 138 kts | 255° |
| 2026-05-05 14:41 | 56.01257 | 37.67522 | 1999 ft | 138 kts | 255° |
| 2026-05-05 14:42 | 56.01010 | 37.65849 | 2038 ft | 140 kts | 256° |
| 2026-05-05 14:42 | 56.00760 | 37.64174 | 2020 ft | 139 kts | 255° |
| 2026-05-05 14:42 | 56.00513 | 37.62522 | 2017 ft | 137 kts | 256° |
| 2026-05-05 14:42 | 56.00269 | 37.60870 | 2012 ft | 138 kts | 256° |
| 2026-05-05 14:43 | 56.00023 | 37.59204 | 2018 ft | 140 kts | 256° |
| 2026-05-05 14:43 | 55.99776 | 37.57539 | 1997 ft | 139 kts | 255° |
| 2026-05-05 14:43 | 55.99531 | 37.55872 | 1886 ft | 137 kts | 256° |
| 2026-05-05 14:43 | 55.99285 | 37.54210 | 1756 ft | 138 kts | 257° |
| 2026-05-05 14:44 | 55.99044 | 37.52579 | 1597 ft | 139 kts | 257° |
| 2026-05-05 14:44 | 55.98795 | 37.50921 | 1408 ft | 138 kts | 255° |
| 2026-05-05 14:44 | 55.98566 | 37.49261 | 1258 ft | 138 kts | 255° |
| 2026-05-05 14:44 | 55.98312 | 37.47595 | 1060 ft | 138 kts | 256° |
| 2026-05-05 14:45 | 55.98061 | 37.45945 | 851 ft | 137 kts | 255° |
| 2026-05-05 14:45 | 55.97824 | 37.44303 | 703 ft | 136 kts | 255° |
| 2026-05-05 14:45 | 55.97596 | 37.42758 | 639 ft | 109 kts | 255° |
| 2026-05-05 14:45 | 55.97444 | 37.41756 | 645 ft | 59 kts | 255° |
| 2026-05-05 14:46 | 55.97362 | 37.41202 | 641 ft | 39 kts | 256° |
| 2026-05-05 14:46 | 55.97321 | 37.40856 | 641 ft | 26 kts | 270° |
| 2026-05-05 14:46 | 55.97350 | 37.40609 | 642 ft | 17 kts | 285° |
| 2026-05-05 14:46 | 55.97410 | 37.40479 | 639 ft | 11 kts | 10° |
| 2026-05-05 14:47 | 55.97424 | 37.40498 | 644 ft | 0 kts | 45° |
| 2026-05-05 14:50 | 55.97426 | 37.40502 | 643 ft | 2 kts | 52° |
| 2026-05-05 14:50 | 55.97439 | 37.40557 | 639 ft | 6 kts | 70° |
| 2026-05-05 14:50 | 55.97453 | 37.40640 | 641 ft | 12 kts | 74° |
| 2026-05-05 14:50 | 55.97480 | 37.40825 | 641 ft | 19 kts | 76° |
| 2026-05-05 14:51 | 55.97520 | 37.41087 | 644 ft | 21 kts | 74° |
| 2026-05-05 14:51 | 55.97564 | 37.41334 | 644 ft | 21 kts | 78° |
| 2026-05-05 14:51 | 55.97595 | 37.41586 | 641 ft | 21 kts | 76° |
| 2026-05-05 14:51 | 55.97635 | 37.41857 | 646 ft | 22 kts | 75° |
| 2026-05-05 14:52 | 55.97665 | 37.42052 | 644 ft | 12 kts | 75° |
| 2026-05-05 14:52 | 55.97717 | 37.42126 | 639 ft | 10 kts | 354° |
| 2026-05-05 14:52 | 55.97775 | 37.42096 | 647 ft | 8 kts | 345° |
| 2026-05-05 14:52 | 55.97823 | 37.42072 | 639 ft | 6 kts | 345° |
| 2026-05-05 14:53 | 55.97869 | 37.42053 | 642 ft | 9 kts | 346° |
| 2026-05-05 14:53 | 55.97954 | 37.42012 | 639 ft | 10 kts | 345° |
| 2026-05-05 14:53 | 55.98001 | 37.41990 | 639 ft | 6 kts | 345° |
| 2026-05-05 14:53 | 55.98037 | 37.41965 | 639 ft | 5 kts | 321° |
| 2026-05-05 14:54 | 55.98044 | 37.41920 | 639 ft | 3 kts | 272° |
| 2026-05-05 14:54 | 55.98039 | 37.41883 | 639 ft | 5 kts | 252° |
| 2026-05-05 14:54 | 55.98022 | 37.41844 | 646 ft | 0 kts | 234° |
| 2026-05-05 14:54 | 55.98019 | 37.41834 | 639 ft | 0 kts | 242° |